sensor_id;sensor_type;location;lat;lon;timestamp;temperature;humidity
44229;DHT22;29904;51.058;5.378;2023-07-13T00:01:58;15.50;99.90
44229;DHT22;29904;51.058;5.378;2023-07-13T00:04:26;15.50;99.90
44229;DHT22;29904;51.058;5.378;2023-07-13T00:06:52;15.40;99.90
44229;DHT22;29904;51.058;5.378;2023-07-13T00:09:18;15.40;99.90
44229;DHT22;29904;51.058;5.378;2023-07-13T00:11:45;15.40;99.90
44229;DHT22;29904;51.058;5.378;2023-07-13T00:14:13;15.30;99.90
44229;DHT22;29904;51.058;5.378;2023-07-13T00:16:39;15.30;99.90
44229;DHT22;29904;51.058;5.378;2023-07-13T00:19:13;15.20;99.90
44229;DHT22;29904;51.058;5.378;2023-07-13T00:21:40;15.20;99.90
44229;DHT22;29904;51.058;5.378;2023-07-13T00:24:08;15.20;99.90
44229;DHT22;29904;51.058;5.378;2023-07-13T00:26:34;15.10;99.90
44229;DHT22;29904;51.058;5.378;2023-07-13T00:29:00;15.10;99.90
44229;DHT22;29904;51.058;5.378;2023-07-13T00:31:25;15.00;99.90
44229;DHT22;29904;51.058;5.378;2023-07-13T00:33:53;15.10;99.90
44229;DHT22;29904;51.058;5.378;2023-07-13T00:36:19;15.00;99.90
44229;DHT22;29904;51.058;5.378;2023-07-13T00:38:45;15.00;99.90
44229;DHT22;29904;51.058;5.378;2023-07-13T00:41:13;15.10;99.90
44229;DHT22;29904;51.058;5.378;2023-07-13T00:43:41;15.00;99.90
44229;DHT22;29904;51.058;5.378;2023-07-13T00:46:27;15.00;99.90
44229;DHT22;29904;51.058;5.378;2023-07-13T00:48:56;15.00;99.90
44229;DHT22;29904;51.058;5.378;2023-07-13T00:51:31;14.90;99.90
44229;DHT22;29904;51.058;5.378;2023-07-13T00:54:00;14.90;99.90
44229;DHT22;29904;51.058;5.378;2023-07-13T00:56:27;14.90;99.90
44229;DHT22;29904;51.058;5.378;2023-07-13T00:58:54;14.90;99.90
44229;DHT22;29904;51.058;5.378;2023-07-13T01:01:20;14.90;99.90
44229;DHT22;29904;51.058;5.378;2023-07-13T01:03:46;14.90;99.90
44229;DHT22;29904;51.058;5.378;2023-07-13T01:06:14;14.90;99.90
44229;DHT22;29904;51.058;5.378;2023-07-13T01:08:39;14.90;99.90
44229;DHT22;29904;51.058;5.378;2023-07-13T01:11:05;14.90;99.90
44229;DHT22;29904;51.058;5.378;2023-07-13T01:13:33;14.90;99.90
44229;DHT22;29904;51.058;5.378;2023-07-13T01:16:04;14.90;99.90
44229;DHT22;29904;51.058;5.378;2023-07-13T01:18:31;14.90;99.90
44229;DHT22;29904;51.058;5.378;2023-07-13T01:21:03;14.90;99.90
44229;DHT22;29904;51.058;5.378;2023-07-13T01:23:31;14.90;99.90
44229;DHT22;29904;51.058;5.378;2023-07-13T01:25:58;14.80;99.90
44229;DHT22;29904;51.058;5.378;2023-07-13T01:28:27;14.80;99.90
44229;DHT22;29904;51.058;5.378;2023-07-13T01:30:56;14.80;99.90
44229;DHT22;29904;51.058;5.378;2023-07-13T01:33:23;14.80;99.90
44229;DHT22;29904;51.058;5.378;2023-07-13T01:35:49;14.70;99.90
44229;DHT22;29904;51.058;5.378;2023-07-13T01:38:18;14.70;99.90
44229;DHT22;29904;51.058;5.378;2023-07-13T01:40:45;14.70;99.90
44229;DHT22;29904;51.058;5.378;2023-07-13T01:43:11;14.70;99.90
44229;DHT22;29904;51.058;5.378;2023-07-13T01:45:37;14.60;99.90
44229;DHT22;29904;51.058;5.378;2023-07-13T01:48:03;14.60;99.90
44229;DHT22;29904;51.058;5.378;2023-07-13T01:50:29;14.60;99.90
44229;DHT22;29904;51.058;5.378;2023-07-13T01:52:56;14.60;99.90
44229;DHT22;29904;51.058;5.378;2023-07-13T01:55:22;14.60;99.90
44229;DHT22;29904;51.058;5.378;2023-07-13T01:57:48;14.60;99.90
44229;DHT22;29904;51.058;5.378;2023-07-13T02:00:15;14.60;99.90
44229;DHT22;29904;51.058;5.378;2023-07-13T02:02:41;14.50;99.90
44229;DHT22;29904;51.058;5.378;2023-07-13T02:05:07;14.50;99.90
44229;DHT22;29904;51.058;5.378;2023-07-13T02:07:35;14.50;99.90
44229;DHT22;29904;51.058;5.378;2023-07-13T02:10:01;14.50;99.90
44229;DHT22;29904;51.058;5.378;2023-07-13T02:12:26;14.40;99.90
44229;DHT22;29904;51.058;5.378;2023-07-13T02:14:54;14.40;99.90
44229;DHT22;29904;51.058;5.378;2023-07-13T02:17:20;14.40;99.90
44229;DHT22;29904;51.058;5.378;2023-07-13T02:19:45;14.40;99.90
44229;DHT22;29904;51.058;5.378;2023-07-13T02:22:11;14.40;99.90
44229;DHT22;29904;51.058;5.378;2023-07-13T02:24:37;14.40;99.90
44229;DHT22;29904;51.058;5.378;2023-07-13T02:27:03;14.40;99.90
44229;DHT22;29904;51.058;5.378;2023-07-13T02:29:29;14.40;99.90
44229;DHT22;29904;51.058;5.378;2023-07-13T02:31:55;14.40;99.90
44229;DHT22;29904;51.058;5.378;2023-07-13T02:34:22;14.40;99.90
44229;DHT22;29904;51.058;5.378;2023-07-13T02:36:50;14.40;99.90
44229;DHT22;29904;51.058;5.378;2023-07-13T02:39:16;14.40;99.90
44229;DHT22;29904;51.058;5.378;2023-07-13T02:41:42;14.30;99.90
44229;DHT22;29904;51.058;5.378;2023-07-13T02:44:07;14.30;99.90
44229;DHT22;29904;51.058;5.378;2023-07-13T02:46:35;14.30;99.90
44229;DHT22;29904;51.058;5.378;2023-07-13T02:49:02;14.30;99.90
44229;DHT22;29904;51.058;5.378;2023-07-13T02:51:28;14.40;99.90
44229;DHT22;29904;51.058;5.378;2023-07-13T02:53:54;14.40;99.90
44229;DHT22;29904;51.058;5.378;2023-07-13T02:56:24;14.30;99.90
44229;DHT22;29904;51.058;5.378;2023-07-13T02:58:50;14.40;99.90
44229;DHT22;29904;51.058;5.378;2023-07-13T03:01:16;14.40;99.90
44229;DHT22;29904;51.058;5.378;2023-07-13T03:03:49;14.40;99.90
44229;DHT22;29904;51.058;5.378;2023-07-13T03:06:16;14.40;99.90
44229;DHT22;29904;51.058;5.378;2023-07-13T03:08:42;14.40;99.90
44229;DHT22;29904;51.058;5.378;2023-07-13T03:11:12;14.40;99.90
44229;DHT22;29904;51.058;5.378;2023-07-13T03:13:40;14.50;99.90
44229;DHT22;29904;51.058;5.378;2023-07-13T03:16:07;14.60;99.90
44229;DHT22;29904;51.058;5.378;2023-07-13T03:18:33;14.70;99.90
44229;DHT22;29904;51.058;5.378;2023-07-13T03:20:59;14.70;99.90
44229;DHT22;29904;51.058;5.378;2023-07-13T03:23:25;14.90;99.90
44229;DHT22;29904;51.058;5.378;2023-07-13T03:26:04;14.90;99.90
44229;DHT22;29904;51.058;5.378;2023-07-13T03:28:31;15.00;99.90
44229;DHT22;29904;51.058;5.378;2023-07-13T03:31:14;15.10;99.90
44229;DHT22;29904;51.058;5.378;2023-07-13T03:33:42;15.20;99.90
44229;DHT22;29904;51.058;5.378;2023-07-13T03:36:18;15.20;99.90
44229;DHT22;29904;51.058;5.378;2023-07-13T03:38:53;15.20;99.90
44229;DHT22;29904;51.058;5.378;2023-07-13T03:41:19;15.30;99.90
44229;DHT22;29904;51.058;5.378;2023-07-13T03:43:45;15.30;99.90
44229;DHT22;29904;51.058;5.378;2023-07-13T03:46:12;15.30;99.90
44229;DHT22;29904;51.058;5.378;2023-07-13T03:48:38;15.30;99.90
44229;DHT22;29904;51.058;5.378;2023-07-13T03:51:06;15.30;99.90
44229;DHT22;29904;51.058;5.378;2023-07-13T03:53:32;15.30;99.90
44229;DHT22;29904;51.058;5.378;2023-07-13T03:55:58;15.40;99.90
44229;DHT22;29904;51.058;5.378;2023-07-13T03:58:27;15.40;99.90
44229;DHT22;29904;51.058;5.378;2023-07-13T04:00:54;15.40;99.90
44229;DHT22;29904;51.058;5.378;2023-07-13T04:03:20;15.50;99.90
44229;DHT22;29904;51.058;5.378;2023-07-13T04:05:46;15.50;99.90
44229;DHT22;29904;51.058;5.378;2023-07-13T04:08:12;15.60;99.90
44229;DHT22;29904;51.058;5.378;2023-07-13T04:10:38;15.60;99.90
44229;DHT22;29904;51.058;5.378;2023-07-13T04:13:05;15.60;99.90
44229;DHT22;29904;51.058;5.378;2023-07-13T04:15:33;15.60;99.90
44229;DHT22;29904;51.058;5.378;2023-07-13T04:17:59;15.70;99.90
44229;DHT22;29904;51.058;5.378;2023-07-13T04:20:25;15.70;99.90
44229;DHT22;29904;51.058;5.378;2023-07-13T04:22:52;15.80;99.90
44229;DHT22;29904;51.058;5.378;2023-07-13T04:25:20;15.80;99.90
44229;DHT22;29904;51.058;5.378;2023-07-13T04:27:45;15.90;99.90
44229;DHT22;29904;51.058;5.378;2023-07-13T04:30:13;15.90;99.90
44229;DHT22;29904;51.058;5.378;2023-07-13T04:32:39;15.90;99.90
44229;DHT22;29904;51.058;5.378;2023-07-13T04:35:05;16.00;99.90
44229;DHT22;29904;51.058;5.378;2023-07-13T04:37:31;16.10;99.90
44229;DHT22;29904;51.058;5.378;2023-07-13T04:39:58;16.00;99.90
44229;DHT22;29904;51.058;5.378;2023-07-13T04:42:24;16.00;99.90
44229;DHT22;29904;51.058;5.378;2023-07-13T04:44:51;16.10;99.90
44229;DHT22;29904;51.058;5.378;2023-07-13T04:47:20;16.10;99.90
44229;DHT22;29904;51.058;5.378;2023-07-13T04:49:46;16.20;99.90
44229;DHT22;29904;51.058;5.378;2023-07-13T04:52:12;16.30;99.90
44229;DHT22;29904;51.058;5.378;2023-07-13T04:54:39;16.30;99.90
44229;DHT22;29904;51.058;5.378;2023-07-13T04:57:05;16.30;99.90
44229;DHT22;29904;51.058;5.378;2023-07-13T04:59:32;16.40;99.90
44229;DHT22;29904;51.058;5.378;2023-07-13T05:01:58;16.30;99.90
44229;DHT22;29904;51.058;5.378;2023-07-13T05:04:24;16.40;99.90
44229;DHT22;29904;51.058;5.378;2023-07-13T05:06:50;16.40;99.90
44229;DHT22;29904;51.058;5.378;2023-07-13T05:09:18;16.40;99.90
44229;DHT22;29904;51.058;5.378;2023-07-13T05:11:45;16.50;99.90
44229;DHT22;29904;51.058;5.378;2023-07-13T05:14:11;16.50;99.90
44229;DHT22;29904;51.058;5.378;2023-07-13T05:16:37;16.60;99.90
44229;DHT22;29904;51.058;5.378;2023-07-13T05:19:02;16.50;99.90
44229;DHT22;29904;51.058;5.378;2023-07-13T05:21:28;16.50;99.90
44229;DHT22;29904;51.058;5.378;2023-07-13T05:23:54;16.50;99.90
44229;DHT22;29904;51.058;5.378;2023-07-13T05:26:22;16.50;99.90
44229;DHT22;29904;51.058;5.378;2023-07-13T05:28:47;16.50;99.90
44229;DHT22;29904;51.058;5.378;2023-07-13T05:31:13;16.60;99.90
44229;DHT22;29904;51.058;5.378;2023-07-13T05:33:39;16.60;99.90
44229;DHT22;29904;51.058;5.378;2023-07-13T05:36:05;16.70;99.90
44229;DHT22;29904;51.058;5.378;2023-07-13T05:38:32;16.80;99.90
44229;DHT22;29904;51.058;5.378;2023-07-13T05:41:00;16.80;99.90
44229;DHT22;29904;51.058;5.378;2023-07-13T05:43:26;16.90;99.90
44229;DHT22;29904;51.058;5.378;2023-07-13T05:45:56;16.90;99.90
44229;DHT22;29904;51.058;5.378;2023-07-13T05:48:22;17.00;99.90
44229;DHT22;29904;51.058;5.378;2023-07-13T05:50:48;17.10;99.90
44229;DHT22;29904;51.058;5.378;2023-07-13T05:53:15;17.10;99.90
44229;DHT22;29904;51.058;5.378;2023-07-13T05:55:45;17.20;99.90
44229;DHT22;29904;51.058;5.378;2023-07-13T05:58:17;17.30;99.90
44229;DHT22;29904;51.058;5.378;2023-07-13T06:00:43;17.30;99.90
44229;DHT22;29904;51.058;5.378;2023-07-13T06:03:08;17.40;99.90
44229;DHT22;29904;51.058;5.378;2023-07-13T06:05:36;17.40;99.90
44229;DHT22;29904;51.058;5.378;2023-07-13T06:08:03;17.30;99.90
44229;DHT22;29904;51.058;5.378;2023-07-13T06:10:31;17.30;99.90
44229;DHT22;29904;51.058;5.378;2023-07-13T06:12:57;17.40;99.90
44229;DHT22;29904;51.058;5.378;2023-07-13T06:15:23;17.40;99.90
44229;DHT22;29904;51.058;5.378;2023-07-13T06:17:49;17.50;99.90
44229;DHT22;29904;51.058;5.378;2023-07-13T06:20:14;17.50;99.90
44229;DHT22;29904;51.058;5.378;2023-07-13T06:22:40;17.50;99.90
44229;DHT22;29904;51.058;5.378;2023-07-13T06:25:06;17.60;99.90
44229;DHT22;29904;51.058;5.378;2023-07-13T06:27:32;17.70;99.90
44229;DHT22;29904;51.058;5.378;2023-07-13T06:29:58;17.70;99.90
44229;DHT22;29904;51.058;5.378;2023-07-13T06:32:23;17.50;99.90
44229;DHT22;29904;51.058;5.378;2023-07-13T06:34:51;17.70;99.90
44229;DHT22;29904;51.058;5.378;2023-07-13T06:37:17;17.80;99.90
44229;DHT22;29904;51.058;5.378;2023-07-13T06:39:43;17.90;99.90
44229;DHT22;29904;51.058;5.378;2023-07-13T06:42:10;18.00;99.90
44229;DHT22;29904;51.058;5.378;2023-07-13T06:44:36;18.10;99.90
44229;DHT22;29904;51.058;5.378;2023-07-13T06:47:02;18.20;99.90
44229;DHT22;29904;51.058;5.378;2023-07-13T06:49:28;18.20;99.90
44229;DHT22;29904;51.058;5.378;2023-07-13T06:51:54;18.20;99.90
44229;DHT22;29904;51.058;5.378;2023-07-13T06:54:19;18.20;99.90
44229;DHT22;29904;51.058;5.378;2023-07-13T06:56:47;18.30;99.90
44229;DHT22;29904;51.058;5.378;2023-07-13T06:59:13;18.50;99.90
44229;DHT22;29904;51.058;5.378;2023-07-13T07:01:38;18.60;99.90
44229;DHT22;29904;51.058;5.378;2023-07-13T07:04:04;18.60;99.90
44229;DHT22;29904;51.058;5.378;2023-07-13T07:06:30;18.80;99.90
44229;DHT22;29904;51.058;5.378;2023-07-13T07:08:56;18.90;99.90
44229;DHT22;29904;51.058;5.378;2023-07-13T07:11:24;18.90;99.90
44229;DHT22;29904;51.058;5.378;2023-07-13T07:13:51;19.00;99.90
44229;DHT22;29904;51.058;5.378;2023-07-13T07:16:17;19.10;99.90
44229;DHT22;29904;51.058;5.378;2023-07-13T07:18:43;19.20;99.90
44229;DHT22;29904;51.058;5.378;2023-07-13T07:21:09;19.20;99.90
44229;DHT22;29904;51.058;5.378;2023-07-13T07:23:34;19.10;99.90
44229;DHT22;29904;51.058;5.378;2023-07-13T07:26:01;19.00;99.90
44229;DHT22;29904;51.058;5.378;2023-07-13T07:28:27;19.10;99.90
44229;DHT22;29904;51.058;5.378;2023-07-13T07:30:56;19.20;99.90
44229;DHT22;29904;51.058;5.378;2023-07-13T07:33:24;19.30;99.90
44229;DHT22;29904;51.058;5.378;2023-07-13T07:35:51;19.40;99.90
44229;DHT22;29904;51.058;5.378;2023-07-13T07:38:17;19.50;99.90
44229;DHT22;29904;51.058;5.378;2023-07-13T07:40:43;19.60;99.90
44229;DHT22;29904;51.058;5.378;2023-07-13T07:43:11;19.50;99.90
44229;DHT22;29904;51.058;5.378;2023-07-13T07:45:39;19.40;99.90
44229;DHT22;29904;51.058;5.378;2023-07-13T07:48:07;19.40;99.90
44229;DHT22;29904;51.058;5.378;2023-07-13T07:50:35;19.50;99.90
44229;DHT22;29904;51.058;5.378;2023-07-13T07:53:01;19.70;99.90
44229;DHT22;29904;51.058;5.378;2023-07-13T07:55:29;19.90;99.90
44229;DHT22;29904;51.058;5.378;2023-07-13T07:57:56;20.20;99.90
44229;DHT22;29904;51.058;5.378;2023-07-13T08:00:22;20.30;99.90
44229;DHT22;29904;51.058;5.378;2023-07-13T08:02:48;20.40;99.90
44229;DHT22;29904;51.058;5.378;2023-07-13T08:05:16;20.50;99.90
44229;DHT22;29904;51.058;5.378;2023-07-13T08:07:41;20.60;99.90
44229;DHT22;29904;51.058;5.378;2023-07-13T08:10:08;20.60;99.90
44229;DHT22;29904;51.058;5.378;2023-07-13T08:12:37;20.70;99.90
44229;DHT22;29904;51.058;5.378;2023-07-13T08:15:03;20.80;99.90
44229;DHT22;29904;51.058;5.378;2023-07-13T08:17:29;20.90;99.90
44229;DHT22;29904;51.058;5.378;2023-07-13T08:19:55;21.00;99.90
44229;DHT22;29904;51.058;5.378;2023-07-13T08:22:21;21.00;99.90
44229;DHT22;29904;51.058;5.378;2023-07-13T08:24:46;21.30;99.90
44229;DHT22;29904;51.058;5.378;2023-07-13T08:27:23;21.40;99.90
44229;DHT22;29904;51.058;5.378;2023-07-13T08:29:49;21.40;99.90
44229;DHT22;29904;51.058;5.378;2023-07-13T08:32:15;21.60;99.90
44229;DHT22;29904;51.058;5.378;2023-07-13T08:34:41;21.70;99.90
44229;DHT22;29904;51.058;5.378;2023-07-13T08:37:07;22.00;99.90
44229;DHT22;29904;51.058;5.378;2023-07-13T08:39:33;22.30;99.90
44229;DHT22;29904;51.058;5.378;2023-07-13T08:42:05;22.40;99.90
44229;DHT22;29904;51.058;5.378;2023-07-13T08:47:34;23.10;99.90
44229;DHT22;29904;51.058;5.378;2023-07-13T08:50:02;23.20;99.90
44229;DHT22;29904;51.058;5.378;2023-07-13T08:52:39;23.60;99.90
44229;DHT22;29904;51.058;5.378;2023-07-13T08:55:13;23.90;99.90
44229;DHT22;29904;51.058;5.378;2023-07-13T08:57:41;24.50;99.90
44229;DHT22;29904;51.058;5.378;2023-07-13T09:00:10;24.40;99.90
44229;DHT22;29904;51.058;5.378;2023-07-13T09:02:54;23.90;99.90
44229;DHT22;29904;51.058;5.378;2023-07-13T09:05:34;23.60;99.90
44229;DHT22;29904;51.058;5.378;2023-07-13T09:08:33;23.30;99.90
44229;DHT22;29904;51.058;5.378;2023-07-13T09:16:23;23.10;99.90
44229;DHT22;29904;51.058;5.378;2023-07-13T09:18:51;22.80;99.90
44229;DHT22;29904;51.058;5.378;2023-07-13T09:21:23;22.80;99.90
44229;DHT22;29904;51.058;5.378;2023-07-13T09:23:54;22.90;99.90
44229;DHT22;29904;51.058;5.378;2023-07-13T09:26:24;22.90;99.90
44229;DHT22;29904;51.058;5.378;2023-07-13T09:29:09;23.10;99.90
44229;DHT22;29904;51.058;5.378;2023-07-13T09:31:42;23.20;99.90
44229;DHT22;29904;51.058;5.378;2023-07-13T09:34:12;23.50;99.90
44229;DHT22;29904;51.058;5.378;2023-07-13T09:36:38;24.00;99.90
44229;DHT22;29904;51.058;5.378;2023-07-13T09:42:19;24.50;99.90
44229;DHT22;29904;51.058;5.378;2023-07-13T09:44:59;24.00;99.90
44229;DHT22;29904;51.058;5.378;2023-07-13T09:47:28;24.00;99.90
44229;DHT22;29904;51.058;5.378;2023-07-13T09:50:07;24.30;99.90
44229;DHT22;29904;51.058;5.378;2023-07-13T09:52:46;24.20;99.90
44229;DHT22;29904;51.058;5.378;2023-07-13T09:55:29;24.20;99.90
44229;DHT22;29904;51.058;5.378;2023-07-13T09:57:55;24.20;99.90
44229;DHT22;29904;51.058;5.378;2023-07-13T10:00:29;24.10;99.90
44229;DHT22;29904;51.058;5.378;2023-07-13T10:03:23;24.00;99.90
44229;DHT22;29904;51.058;5.378;2023-07-13T10:05:49;23.80;99.90
44229;DHT22;29904;51.058;5.378;2023-07-13T10:10:45;23.80;99.90
44229;DHT22;29904;51.058;5.378;2023-07-13T10:13:29;23.90;99.90
44229;DHT22;29904;51.058;5.378;2023-07-13T10:15:55;23.90;99.90
44229;DHT22;29904;51.058;5.378;2023-07-13T10:18:24;23.70;99.90
44229;DHT22;29904;51.058;5.378;2023-07-13T10:20:58;23.50;99.90
44229;DHT22;29904;51.058;5.378;2023-07-13T10:23:30;23.30;99.90
44229;DHT22;29904;51.058;5.378;2023-07-13T10:25:56;23.50;99.90
44229;DHT22;29904;51.058;5.378;2023-07-13T10:28:35;24.00;99.90
44229;DHT22;29904;51.058;5.378;2023-07-13T10:31:02;24.30;99.90
44229;DHT22;29904;51.058;5.378;2023-07-13T10:33:30;24.60;99.90
44229;DHT22;29904;51.058;5.378;2023-07-13T10:36:31;24.60;99.90
44229;DHT22;29904;51.058;5.378;2023-07-13T10:39:02;24.10;99.90
44229;DHT22;29904;51.058;5.378;2023-07-13T10:41:32;23.60;99.90
44229;DHT22;29904;51.058;5.378;2023-07-13T10:43:59;23.40;99.90
44229;DHT22;29904;51.058;5.378;2023-07-13T10:46:27;23.30;99.90
44229;DHT22;29904;51.058;5.378;2023-07-13T10:49:05;23.50;99.90
44229;DHT22;29904;51.058;5.378;2023-07-13T10:51:34;23.90;99.90
44229;DHT22;29904;51.058;5.378;2023-07-13T10:54:26;24.30;99.90
44229;DHT22;29904;51.058;5.378;2023-07-13T10:57:17;24.80;99.90
44229;DHT22;29904;51.058;5.378;2023-07-13T10:59:49;24.80;99.90
44229;DHT22;29904;51.058;5.378;2023-07-13T11:02:34;24.70;99.90
44229;DHT22;29904;51.058;5.378;2023-07-13T11:05:26;24.70;99.90
44229;DHT22;29904;51.058;5.378;2023-07-13T11:07:56;24.60;99.90
44229;DHT22;29904;51.058;5.378;2023-07-13T11:10:50;24.60;99.90
44229;DHT22;29904;51.058;5.378;2023-07-13T11:13:36;24.40;99.90
44229;DHT22;29904;51.058;5.378;2023-07-13T11:16:13;24.00;99.90
44229;DHT22;29904;51.058;5.378;2023-07-13T11:18:41;23.80;99.90
44229;DHT22;29904;51.058;5.378;2023-07-13T11:23:44;24.60;99.90
44229;DHT22;29904;51.058;5.378;2023-07-13T11:26:42;25.30;99.90
44229;DHT22;29904;51.058;5.378;2023-07-13T11:29:25;25.70;99.90
44229;DHT22;29904;51.058;5.378;2023-07-13T11:31:56;25.80;99.90
44229;DHT22;29904;51.058;5.378;2023-07-13T11:34:30;25.70;99.90
44229;DHT22;29904;51.058;5.378;2023-07-13T11:36:57;25.90;99.90
44229;DHT22;29904;51.058;5.378;2023-07-13T11:39:40;26.10;99.90
44229;DHT22;29904;51.058;5.378;2023-07-13T11:42:13;25.90;99.90
44229;DHT22;29904;51.058;5.378;2023-07-13T11:44:47;25.50;99.90
44229;DHT22;29904;51.058;5.378;2023-07-13T11:47:18;25.30;99.90
44229;DHT22;29904;51.058;5.378;2023-07-13T11:49:49;25.20;99.90
44229;DHT22;29904;51.058;5.378;2023-07-13T11:52:20;24.90;99.90
44229;DHT22;29904;51.058;5.378;2023-07-13T11:54:53;24.70;99.90
44229;DHT22;29904;51.058;5.378;2023-07-13T11:57:26;24.70;99.90
44229;DHT22;29904;51.058;5.378;2023-07-13T11:59:55;24.70;99.90
44229;DHT22;29904;51.058;5.378;2023-07-13T12:02:33;25.00;99.90
44229;DHT22;29904;51.058;5.378;2023-07-13T12:05:00;25.30;99.90
44229;DHT22;29904;51.058;5.378;2023-07-13T12:07:30;25.90;99.90
44229;DHT22;29904;51.058;5.378;2023-07-13T12:10:25;25.90;99.90
44229;DHT22;29904;51.058;5.378;2023-07-13T12:12:55;25.60;99.90
44229;DHT22;29904;51.058;5.378;2023-07-13T12:15:23;25.50;99.90
44229;DHT22;29904;51.058;5.378;2023-07-13T12:17:50;25.20;99.90
44229;DHT22;29904;51.058;5.378;2023-07-13T12:20:35;24.80;99.90
44229;DHT22;29904;51.058;5.378;2023-07-13T12:23:05;24.60;99.90
44229;DHT22;29904;51.058;5.378;2023-07-13T12:25:33;24.80;99.90
44229;DHT22;29904;51.058;5.378;2023-07-13T12:27:59;25.00;99.90
44229;DHT22;29904;51.058;5.378;2023-07-13T12:30:48;25.00;99.90
44229;DHT22;29904;51.058;5.378;2023-07-13T12:33:16;24.90;99.90
44229;DHT22;29904;51.058;5.378;2023-07-13T12:35:47;24.60;99.90
44229;DHT22;29904;51.058;5.378;2023-07-13T12:38:16;24.40;99.90
44229;DHT22;29904;51.058;5.378;2023-07-13T12:40:42;24.10;99.90
44229;DHT22;29904;51.058;5.378;2023-07-13T12:43:14;23.90;99.90
44229;DHT22;29904;51.058;5.378;2023-07-13T12:45:56;23.80;99.90
44229;DHT22;29904;51.058;5.378;2023-07-13T12:48:22;23.80;99.90
44229;DHT22;29904;51.058;5.378;2023-07-13T12:50:50;24.00;99.90
44229;DHT22;29904;51.058;5.378;2023-07-13T12:53:23;24.20;99.90
44229;DHT22;29904;51.058;5.378;2023-07-13T12:55:52;24.40;99.90
44229;DHT22;29904;51.058;5.378;2023-07-13T13:00:57;24.70;99.90
44229;DHT22;29904;51.058;5.378;2023-07-13T13:06:06;24.80;99.90
44229;DHT22;29904;51.058;5.378;2023-07-13T13:08:52;24.80;99.90
44229;DHT22;29904;51.058;5.378;2023-07-13T13:11:20;24.80;99.90
44229;DHT22;29904;51.058;5.378;2023-07-13T13:13:46;24.50;99.90
44229;DHT22;29904;51.058;5.378;2023-07-13T13:18:46;24.40;99.90
44229;DHT22;29904;51.058;5.378;2023-07-13T13:21:12;24.30;99.90
44229;DHT22;29904;51.058;5.378;2023-07-13T13:23:38;24.00;99.90
44229;DHT22;29904;51.058;5.378;2023-07-13T13:26:10;23.40;99.90
44229;DHT22;29904;51.058;5.378;2023-07-13T13:28:35;22.30;99.90
44229;DHT22;29904;51.058;5.378;2023-07-13T13:31:01;21.30;99.90
44229;DHT22;29904;51.058;5.378;2023-07-13T13:33:27;20.40;99.90
44229;DHT22;29904;51.058;5.378;2023-07-13T13:35:53;19.70;99.90
44229;DHT22;29904;51.058;5.378;2023-07-13T13:38:26;19.10;99.90
44229;DHT22;29904;51.058;5.378;2023-07-13T13:40:54;18.60;99.90
44229;DHT22;29904;51.058;5.378;2023-07-13T13:43:25;18.30;99.90
44229;DHT22;29904;51.058;5.378;2023-07-13T13:45:53;18.20;99.90
44229;DHT22;29904;51.058;5.378;2023-07-13T13:48:39;18.10;99.90
44229;DHT22;29904;51.058;5.378;2023-07-13T13:51:17;18.10;99.90
44229;DHT22;29904;51.058;5.378;2023-07-13T13:53:44;18.10;99.90
44229;DHT22;29904;51.058;5.378;2023-07-13T13:56:14;18.20;99.90
44229;DHT22;29904;51.058;5.378;2023-07-13T13:58:40;18.30;99.90
44229;DHT22;29904;51.058;5.378;2023-07-13T14:01:19;18.30;99.90
44229;DHT22;29904;51.058;5.378;2023-07-13T14:03:45;18.40;99.90
44229;DHT22;29904;51.058;5.378;2023-07-13T14:06:15;18.60;99.90
44229;DHT22;29904;51.058;5.378;2023-07-13T14:08:41;18.70;99.90
44229;DHT22;29904;51.058;5.378;2023-07-13T14:11:15;18.80;99.90
44229;DHT22;29904;51.058;5.378;2023-07-13T14:13:44;18.90;99.90
44229;DHT22;29904;51.058;5.378;2023-07-13T14:16:16;18.90;99.90
44229;DHT22;29904;51.058;5.378;2023-07-13T14:18:48;19.00;99.90
44229;DHT22;29904;51.058;5.378;2023-07-13T14:21:19;19.00;99.90
44229;DHT22;29904;51.058;5.378;2023-07-13T14:23:46;19.20;99.90
44229;DHT22;29904;51.058;5.378;2023-07-13T14:26:16;19.10;99.90
44229;DHT22;29904;51.058;5.378;2023-07-13T14:28:44;19.00;99.90
44229;DHT22;29904;51.058;5.378;2023-07-13T14:31:11;19.00;99.90
44229;DHT22;29904;51.058;5.378;2023-07-13T14:33:40;19.00;99.90
44229;DHT22;29904;51.058;5.378;2023-07-13T14:38:43;19.20;99.90
44229;DHT22;29904;51.058;5.378;2023-07-13T14:41:09;19.40;99.90
44229;DHT22;29904;51.058;5.378;2023-07-13T14:43:35;19.60;99.90
44229;DHT22;29904;51.058;5.378;2023-07-13T14:46:03;19.70;99.90
44229;DHT22;29904;51.058;5.378;2023-07-13T14:48:29;19.80;99.90
44229;DHT22;29904;51.058;5.378;2023-07-13T14:50:57;20.10;99.90
44229;DHT22;29904;51.058;5.378;2023-07-13T14:53:25;20.20;99.90
44229;DHT22;29904;51.058;5.378;2023-07-13T14:55:51;20.30;99.90
44229;DHT22;29904;51.058;5.378;2023-07-13T14:58:16;20.50;99.90
44229;DHT22;29904;51.058;5.378;2023-07-13T15:00:42;20.70;99.90
44229;DHT22;29904;51.058;5.378;2023-07-13T15:03:21;20.90;99.90
44229;DHT22;29904;51.058;5.378;2023-07-13T15:05:47;21.00;99.90
44229;DHT22;29904;51.058;5.378;2023-07-13T15:08:13;21.10;99.90
44229;DHT22;29904;51.058;5.378;2023-07-13T15:10:42;21.20;99.90
44229;DHT22;29904;51.058;5.378;2023-07-13T15:13:19;21.20;99.90
44229;DHT22;29904;51.058;5.378;2023-07-13T15:15:48;21.30;99.90
44229;DHT22;29904;51.058;5.378;2023-07-13T15:18:16;21.40;99.90
44229;DHT22;29904;51.058;5.378;2023-07-13T15:20:45;21.50;99.90
44229;DHT22;29904;51.058;5.378;2023-07-13T15:23:13;21.70;99.90
44229;DHT22;29904;51.058;5.378;2023-07-13T15:25:41;22.00;99.90
44229;DHT22;29904;51.058;5.378;2023-07-13T15:28:07;22.30;99.90
44229;DHT22;29904;51.058;5.378;2023-07-13T15:30:47;22.50;99.90
44229;DHT22;29904;51.058;5.378;2023-07-13T15:33:21;22.70;99.90
44229;DHT22;29904;51.058;5.378;2023-07-13T15:35:48;23.00;99.90
44229;DHT22;29904;51.058;5.378;2023-07-13T15:38:19;23.50;99.90
44229;DHT22;29904;51.058;5.378;2023-07-13T15:40:46;23.80;99.90
44229;DHT22;29904;51.058;5.378;2023-07-13T15:43:13;23.90;99.90
44229;DHT22;29904;51.058;5.378;2023-07-13T15:45:39;24.00;99.90
44229;DHT22;29904;51.058;5.378;2023-07-13T15:48:16;23.90;99.90
44229;DHT22;29904;51.058;5.378;2023-07-13T15:50:54;23.90;99.90
44229;DHT22;29904;51.058;5.378;2023-07-13T15:53:33;23.70;99.90
44229;DHT22;29904;51.058;5.378;2023-07-13T15:56:21;23.40;99.90
44229;DHT22;29904;51.058;5.378;2023-07-13T15:58:48;23.40;99.90
44229;DHT22;29904;51.058;5.378;2023-07-13T16:01:14;23.30;99.90
44229;DHT22;29904;51.058;5.378;2023-07-13T16:03:41;23.20;99.90
44229;DHT22;29904;51.058;5.378;2023-07-13T16:06:34;23.40;99.90
44229;DHT22;29904;51.058;5.378;2023-07-13T16:09:02;23.50;99.90
44229;DHT22;29904;51.058;5.378;2023-07-13T16:11:35;23.80;99.90